Terminal Aerodrome Forecast
Issued by NWS

Current Version | Previous Version | Graphics & Text | Print | Product List | Glossary On
Versions: 1 2 3 4 5 6 7 8 9 10 11 12 13 14 15 16 17 18 19 20 21 22 23 24 25 26 27 28 29
000
FTUS41 KRLX 171120
TAFCKB
TAF
KCKB 171120Z 1712/1812 25010G19KT P6SM -SHSN OVC025
     FM171800 25012G21KT P6SM OVC025
     FM172100 26012G20KT P6SM BKN035
     FM180400 27005KT P6SM SCT070=

USA.gov is the U.S. government's official web portal to all federal, state and local government web resources and services.